Terminal Aerodrome Forecast
Issued by NWS

Home | Current Version | Previous Version | Text Only | Print | Product List | Glossary On
Versions: 1 2 3 4 5 6 7 8 9 10 11 12 13 14 15 16 17
598
FTUS46 KMFR 270539
TAFOTH
TAF
KOTH 270539Z 2706/2806 21004KT 5SM BR OVC004
     FM271100 VRB03KT 1/2SM FG OVC002
     FM271700 VRB03KT 4SM BR OVC004
     FM271800 27005KT P6SM BKN010
     FM272300 32008KT P6SM OVC005=

USA.gov is the U.S. government's official web portal to all federal, state and local government web resources and services.